Time;durP1;ratioP1;P1;durP2;ratioP2;P2;SDS_P1;SDS_P2;PMS_P1;PMS_P2;Temp;Humidity;BMP_temperature;BMP_pressure;BME280_temperature;BME280_humidity;BME280_pressure;Samples;Min_cycle;Max_cycle;Signal;HPM_P1;HPM_P2
2022/12/19 00:01:01;;;;;;;26.90;16.50;;;2.10;99.90;;;;;;5032550;28;20459;-36
2022/12/19 00:03:27;;;;;;;28.30;17.40;;;2.20;99.90;;;;;;5048522;28;20420;-39
2022/12/19 00:05:53;;;;;;;29.70;18.03;;;2.30;99.90;;;;;;5048816;28;20435;-42
2022/12/19 00:08:18;;;;;;;29.00;16.63;;;2.30;99.90;;;;;;5047618;28;20241;-39
2022/12/19 00:10:52;;;;;;;27.60;16.57;;;2.20;99.90;;;;;;5048154;28;20217;-38
2022/12/19 00:13:18;;;;;;;29.97;17.30;;;2.30;99.90;;;;;;5048419;28;20185;-39
2022/12/19 00:15:43;;;;;;;28.40;17.27;;;2.40;99.90;;;;;;5048350;28;20483;-36
2022/12/19 00:18:09;;;;;;;28.90;17.17;;;2.10;99.90;;;;;;5048554;28;20264;-36
2022/12/19 00:20:35;;;;;;;25.90;16.40;;;2.30;99.90;;;;;;5046740;28;20184;-32
2022/12/19 00:23:00;;;;;;;25.77;15.63;;;2.20;99.90;;;;;;5046620;28;20287;-42
2022/12/19 00:25:26;;;;;;;25.43;15.13;;;2.50;99.90;;;;;;5048572;28;20534;-39
2022/12/19 00:27:52;;;;;;;30.27;17.77;;;2.20;99.90;;;;;;5048226;28;20636;-40
2022/12/19 00:30:17;;;;;;;27.87;16.30;;;2.20;99.90;;;;;;5047967;28;20288;-37
2022/12/19 00:32:43;;;;;;;27.67;15.60;;;2.20;99.90;;;;;;5047996;28;20423;-39
2022/12/19 00:35:09;;;;;;;32.43;17.10;;;2.20;99.90;;;;;;5047968;28;20819;-41
2022/12/19 00:37:35;;;;;;;29.23;17.00;;;2.40;99.90;;;;;;5048622;28;20189;-38
2022/12/19 00:40:00;;;;;;;27.33;18.07;;;2.30;99.90;;;;;;5047396;28;20574;-39
2022/12/19 00:42:27;;;;;;;26.77;16.63;;;2.60;99.90;;;;;;5048098;28;20261;-40
2022/12/19 00:44:52;;;;;;;25.97;15.23;;;2.50;99.90;;;;;;5047840;28;20182;-41
2022/12/19 00:47:18;;;;;;;27.07;16.20;;;2.50;99.90;;;;;;5048061;28;20416;-43
2022/12/19 00:49:44;;;;;;;27.90;17.80;;;2.50;99.90;;;;;;5048168;28;20190;-37
2022/12/19 00:52:09;;;;;;;26.10;16.70;;;2.30;99.90;;;;;;5047803;28;20185;-37
2022/12/19 00:54:35;;;;;;;26.27;16.43;;;2.40;99.90;;;;;;5047926;28;20296;-39
2022/12/19 00:57:01;;;;;;;29.60;16.80;;;2.30;99.90;;;;;;5047503;28;20265;-39
2022/12/19 00:59:26;;;;;;;28.30;17.57;;;2.30;99.90;;;;;;5047940;28;20181;-40
2022/12/19 01:01:52;;;;;;;24.73;16.77;;;2.20;99.90;;;;;;5046092;28;20178;-37
2022/12/19 01:04:18;;;;;;;24.97;16.53;;;2.30;99.90;;;;;;5048114;28;20338;-40
2022/12/19 01:06:43;;;;;;;28.27;16.33;;;2.60;99.90;;;;;;5048056;28;20213;-39
2022/12/19 01:09:12;;;;;;;25.17;16.33;;;2.50;99.90;;;;;;5045780;28;20617;-39
2022/12/19 01:14:22;;;;;;;24.90;15.50;;;2.50;99.90;;;;;;5047130;28;20475;-38
2022/12/19 01:16:48;;;;;;;25.03;14.40;;;2.70;99.90;;;;;;5047617;28;20918;-38
2022/12/19 01:19:14;;;;;;;28.40;17.33;;;2.60;99.90;;;;;;5047469;28;20598;-40
2022/12/19 01:21:40;;;;;;;25.97;16.03;;;2.70;99.90;;;;;;5047934;28;20432;-37
2022/12/19 01:24:06;;;;;;;26.90;17.07;;;2.60;99.90;;;;;;5047459;28;20444;-38
2022/12/19 01:26:32;;;;;;;28.07;16.70;;;2.50;99.90;;;;;;5047423;28;20789;-40
2022/12/19 01:28:57;;;;;;;25.00;15.80;;;2.80;99.90;;;;;;5047241;28;20204;-39
2022/12/19 01:31:23;;;;;;;29.47;17.50;;;2.80;99.90;;;;;;5047604;28;20417;-38
2022/12/19 01:33:48;;;;;;;27.13;16.07;;;2.70;99.90;;;;;;5047639;28;20239;-36
2022/12/19 01:36:14;;;;;;;24.37;15.57;;;2.60;99.90;;;;;;5047403;28;20479;-36
2022/12/19 01:38:40;;;;;;;29.20;18.10;;;2.80;99.90;;;;;;5048736;28;20209;-38
2022/12/19 01:41:05;;;;;;;28.60;15.60;;;2.80;99.90;;;;;;5051679;28;20176;-37
2022/12/19 01:43:52;;;;;;;22.10;15.07;;;2.80;99.90;;;;;;5050669;28;20180;-41
2022/12/19 01:46:24;;;;;;;26.73;16.87;;;2.90;99.90;;;;;;5051663;28;20186;-35
2022/12/19 01:48:50;;;;;;;26.27;16.93;;;2.70;99.90;;;;;;5051019;28;20484;-34
2022/12/19 01:51:20;;;;;;;26.70;16.80;;;3.00;99.90;;;;;;5051406;28;20919;-40
2022/12/19 01:53:51;;;;;;;30.57;17.43;;;2.90;99.90;;;;;;5050729;28;20186;-39
2022/12/19 01:56:23;;;;;;;29.57;16.70;;;2.80;99.90;;;;;;5051078;28;20463;-36
2022/12/19 01:58:51;;;;;;;27.00;16.80;;;3.00;99.90;;;;;;5050590;28;20420;-37
2022/12/19 02:01:17;;;;;;;25.70;16.80;;;3.00;99.90;;;;;;5051326;28;20462;-39
2022/12/19 02:03:44;;;;;;;28.60;17.23;;;2.90;99.90;;;;;;5050756;28;20408;-36
2022/12/19 02:06:11;;;;;;;32.87;17.90;;;2.90;99.90;;;;;;5049306;28;20970;-38
2022/12/19 02:08:38;;;;;;;29.87;18.20;;;3.00;99.90;;;;;;5048826;28;20459;-39
2022/12/19 02:11:03;;;;;;;25.37;16.57;;;3.00;99.90;;;;;;5050972;28;20427;-39
2022/12/19 02:13:29;;;;;;;27.90;16.80;;;2.70;99.90;;;;;;5050602;28;20466;-41
2022/12/19 02:16:31;;;;;;;27.70;18.07;;;3.10;99.90;;;;;;5050665;28;20221;-40
2022/12/19 02:19:27;;;;;;;28.77;17.63;;;2.80;99.90;;;;;;5050303;28;20557;-41
2022/12/19 02:21:58;;;;;;;26.50;17.10;;;3.00;99.90;;;;;;5050665;28;20423;-39
2022/12/19 02:24:51;;;;;;;29.63;18.57;;;3.10;99.90;;;;;;5050749;28;20772;-36
2022/12/19 02:27:42;;;;;;;25.03;16.23;;;3.00;99.90;;;;;;5050321;28;20820;-41
2022/12/19 02:30:46;;;;;;;27.00;16.03;;;3.00;99.90;;;;;;5050281;28;20440;-39
2022/12/19 02:33:21;;;;;;;28.93;17.43;;;2.80;99.90;;;;;;5047418;28;20444;-40
2022/12/19 02:35:54;;;;;;;30.13;16.00;;;3.10;99.90;;;;;;5050136;28;20451;-37
2022/12/19 02:38:29;;;;;;;27.97;16.87;;;3.20;99.90;;;;;;5050285;28;20421;-37
2022/12/19 02:41:04;;;;;;;29.17;15.83;;;3.10;99.90;;;;;;5050422;28;20506;-41
2022/12/19 02:43:32;;;;;;;24.83;15.47;;;3.00;99.90;;;;;;5049984;28;20777;-39
2022/12/19 02:46:00;;;;;;;28.10;16.10;;;3.20;99.90;;;;;;5048772;28;20412;-41
2022/12/19 02:48:27;;;;;;;26.40;16.27;;;3.20;99.90;;;;;;5049969;28;20427;-35
2022/12/19 02:50:52;;;;;;;28.77;17.30;;;3.20;99.90;;;;;;5049821;28;20416;-41
2022/12/19 02:53:18;;;;;;;23.77;15.33;;;3.20;99.90;;;;;;5050118;28;20423;-42
2022/12/19 02:56:05;;;;;;;26.87;16.03;;;3.30;99.90;;;;;;5049523;28;20339;-35
2022/12/19 02:58:50;;;;;;;27.33;17.40;;;3.10;99.90;;;;;;5049587;28;20683;-36
2022/12/19 03:01:38;;;;;;;26.43;16.77;;;3.40;99.90;;;;;;5049584;28;20427;-42
2022/12/19 03:04:25;;;;;;;27.20;15.83;;;3.20;99.90;;;;;;5049789;28;20408;-39
2022/12/19 03:07:11;;;;;;;29.77;16.67;;;3.30;99.90;;;;;;5049344;28;20424;-39
2022/12/19 03:09:42;;;;;;;23.83;16.50;;;3.40;99.90;;;;;;5049295;28;20462;-38
2022/12/19 03:12:15;;;;;;;25.97;16.30;;;3.40;99.90;;;;;;5049666;28;20440;-40
2022/12/19 03:14:42;;;;;;;23.00;15.30;;;3.50;99.90;;;;;;5049600;28;20448;-37
2022/12/19 03:17:08;;;;;;;26.27;15.27;;;3.60;99.90;;;;;;5049918;28;20416;-37
2022/12/19 03:19:37;;;;;;;25.07;16.03;;;3.70;99.90;;;;;;5049045;28;20490;-38
2022/12/19 03:22:02;;;;;;;26.43;15.07;;;3.50;99.90;;;;;;5049676;28;20584;-35
2022/12/19 03:24:28;;;;;;;26.77;16.07;;;3.70;99.90;;;;;;5049173;28;20474;-38
2022/12/19 03:27:07;;;;;;;28.80;16.90;;;3.50;99.90;;;;;;5049569;28;20540;-39
2022/12/19 03:29:41;;;;;;;20.50;14.00;;;3.80;99.90;;;;;;5049506;28;20816;-41
2022/12/19 03:32:12;;;;;;;26.30;16.07;;;3.70;99.90;;;;;;5049232;28;20758;-38
2022/12/19 03:34:45;;;;;;;26.27;15.70;;;3.60;99.90;;;;;;5049085;28;20837;-34
2022/12/19 03:37:15;;;;;;;26.23;15.90;;;3.60;99.90;;;;;;5047932;28;20413;-36
2022/12/19 03:39:44;;;;;;;23.40;15.03;;;3.60;99.90;;;;;;5049003;28;20420;-39
2022/12/19 03:44:59;;;;;;;26.77;16.17;;;4.00;99.90;;;;;;5049332;28;20487;-36
2022/12/19 03:47:35;;;;;;;23.43;14.33;;;3.90;99.90;;;;;;5048786;28;20416;-39
2022/12/19 03:50:02;;;;;;;28.00;17.07;;;3.60;99.90;;;;;;5048926;28;20411;-35
2022/12/19 03:52:55;;;;;;;25.33;15.47;;;3.90;99.90;;;;;;5048451;28;20416;-37
2022/12/19 03:55:31;;;;;;;23.83;14.53;;;3.70;99.90;;;;;;5048937;28;20478;-40
2022/12/19 03:58:06;;;;;;;25.97;17.40;;;3.80;99.90;;;;;;5048623;28;20814;-37
2022/12/19 04:00:35;;;;;;;24.07;15.47;;;3.90;99.90;;;;;;5048395;28;20400;-39
2022/12/19 04:03:03;;;;;;;25.70;15.53;;;4.00;99.90;;;;;;5048171;28;20906;-39
2022/12/19 04:05:29;;;;;;;23.67;15.70;;;4.10;99.90;;;;;;5048125;28;20539;-36
2022/12/19 04:07:58;;;;;;;23.47;15.00;;;4.00;99.90;;;;;;5046734;28;20550;-39
2022/12/19 04:10:26;;;;;;;24.33;15.87;;;4.00;99.90;;;;;;5047243;28;20456;-38
2022/12/19 04:13:03;;;;;;;25.40;15.43;;;4.10;99.90;;;;;;5047472;28;21106;-35
2022/12/19 04:16:13;;;;;;;23.17;15.80;;;4.10;99.90;;;;;;5047389;28;20463;-35
2022/12/19 04:18:43;;;;;;;26.03;16.30;;;4.00;99.90;;;;;;5037700;28;20432;-37
2022/12/19 04:21:24;;;;;;;21.80;15.33;;;4.00;99.90;;;;;;5047471;28;20601;-37
2022/12/19 04:24:17;;;;;;;23.50;16.80;;;4.10;99.90;;;;;;5047476;28;20461;-40
2022/12/19 04:26:46;;;;;;;23.60;15.70;;;3.90;99.90;;;;;;5047474;28;20425;-40
2022/12/19 04:29:13;;;;;;;27.87;16.30;;;4.10;99.90;;;;;;5047404;28;20429;-37
2022/12/19 04:31:39;;;;;;;26.27;15.80;;;4.20;99.90;;;;;;5047641;28;20503;-40
2022/12/19 04:34:05;;;;;;;24.33;16.87;;;4.10;99.90;;;;;;5047372;28;20444;-38
2022/12/19 04:36:31;;;;;;;25.00;15.30;;;4.00;99.90;;;;;;5047054;28;20498;-37
2022/12/19 04:38:57;;;;;;;25.03;16.23;;;4.20;99.90;;;;;;5046835;28;20653;-37
2022/12/19 04:41:22;;;;;;;23.00;15.40;;;4.30;99.90;;;;;;5047847;28;20566;-36
2022/12/19 04:43:48;;;;;;;22.40;16.00;;;4.20;99.90;;;;;;5046900;28;20184;-37
2022/12/19 04:46:14;;;;;;;26.57;17.70;;;4.20;99.90;;;;;;5047494;28;20664;-40
2022/12/19 04:48:39;;;;;;;25.30;16.13;;;4.30;99.90;;;;;;5046820;28;20276;-40
2022/12/19 04:51:05;;;;;;;28.00;16.70;;;4.40;99.90;;;;;;5047309;28;20521;-39
2022/12/19 04:53:31;;;;;;;23.83;15.70;;;4.30;99.90;;;;;;5046901;28;20182;-39
2022/12/19 04:56:04;;;;;;;23.87;15.27;;;4.40;99.90;;;;;;5047086;28;20212;-38
2022/12/19 04:58:30;;;;;;;24.80;16.57;;;4.40;99.90;;;;;;5046848;28;20251;-40
2022/12/19 05:01:00;;;;;;;25.57;16.63;;;4.50;99.90;;;;;;5047248;28;20420;-39
2022/12/19 05:03:26;;;;;;;23.30;15.50;;;4.40;99.90;;;;;;5046743;28;20178;-37
2022/12/19 05:05:52;;;;;;;23.37;15.87;;;4.60;99.90;;;;;;5009534;28;1084392;-41
2022/12/19 05:08:17;;;;;;;25.50;15.87;;;4.50;99.90;;;;;;5046772;28;20264;-41
2022/12/19 05:10:43;;;;;;;25.57;16.83;;;4.40;99.90;;;;;;5047340;28;20308;-38
2022/12/19 05:13:09;;;;;;;24.67;16.97;;;4.60;99.90;;;;;;5050276;28;20232;-34
2022/12/19 05:15:34;;;;;;;26.80;16.10;;;4.40;99.90;;;;;;5051845;28;20292;-40
2022/12/19 05:18:00;;;;;;;24.43;16.13;;;4.40;99.90;;;;;;5052153;28;20222;-36
2022/12/19 05:20:25;;;;;;;23.13;16.70;;;4.40;99.90;;;;;;5051371;28;20193;-40
2022/12/19 05:22:51;;;;;;;22.13;16.13;;;4.60;99.90;;;;;;5051645;28;20232;-37
2022/12/19 05:25:17;;;;;;;27.40;17.90;;;4.40;99.90;;;;;;5051861;28;20274;-40
2022/12/19 05:27:42;;;;;;;25.00;17.10;;;4.40;99.90;;;;;;5051680;28;20190;-39
2022/12/19 05:30:08;;;;;;;28.50;16.97;;;4.40;99.90;;;;;;5051303;28;20196;-39
2022/12/19 05:32:34;;;;;;;23.73;17.40;;;4.40;99.90;;;;;;5051588;28;20197;-40
2022/12/19 05:35:00;;;;;;;29.00;18.83;;;4.40;99.90;;;;;;5051151;28;20540;-38
2022/12/19 05:37:25;;;;;;;23.10;17.50;;;4.50;99.90;;;;;;5052103;28;20239;-36
2022/12/19 05:39:51;;;;;;;24.57;15.67;;;4.40;99.90;;;;;;5050794;28;20208;-36
2022/12/19 05:42:17;;;;;;;25.93;16.47;;;4.60;99.90;;;;;;5044196;28;20181;-38
2022/12/19 05:44:42;;;;;;;26.87;17.13;;;4.50;99.90;;;;;;5048485;28;20185;-39
2022/12/19 05:47:08;;;;;;;25.60;16.87;;;4.60;99.90;;;;;;5050836;28;20194;-43
2022/12/19 05:49:33;;;;;;;24.03;16.37;;;4.70;99.90;;;;;;5050611;28;20525;-40
2022/12/19 05:51:59;;;;;;;22.93;15.37;;;4.70;99.90;;;;;;5049614;28;20627;-41
2022/12/19 05:54:25;;;;;;;28.70;16.70;;;4.70;99.90;;;;;;5051028;28;20205;-38
2022/12/19 05:56:50;;;;;;;21.70;15.60;;;4.70;99.90;;;;;;5050986;28;20186;-40
2022/12/19 05:59:16;;;;;;;20.23;15.47;;;4.50;99.90;;;;;;5051202;28;20182;-38
2022/12/19 06:01:42;;;;;;;24.40;15.73;;;4.70;99.90;;;;;;5050942;28;20166;-37
2022/12/19 06:04:07;;;;;;;21.90;14.13;;;4.60;99.90;;;;;;5050665;28;20579;-40
2022/12/19 06:06:33;;;;;;;23.50;15.50;;;4.80;99.90;;;;;;5051300;28;20178;-39
2022/12/19 06:08:59;;;;;;;21.53;14.57;;;4.70;99.90;;;;;;5048839;28;20267;-39
2022/12/19 06:11:25;;;;;;;21.40;15.10;;;4.70;99.90;;;;;;5051264;28;20244;-41
2022/12/19 06:13:51;;;;;;;22.30;15.50;;;4.90;99.90;;;;;;5050459;28;20173;-39
2022/12/19 06:16:19;;;;;;;24.10;15.07;;;4.80;99.90;;;;;;5050775;28;20455;-40
2022/12/19 06:18:45;;;;;;;18.40;14.80;;;4.70;99.90;;;;;;5049639;28;20482;-42
2022/12/19 06:21:14;;;;;;;21.33;14.63;;;4.90;99.90;;;;;;5047958;28;20784;-40
2022/12/19 06:23:39;;;;;;;19.87;13.70;;;4.90;99.90;;;;;;5046072;28;20790;-41
2022/12/19 06:26:06;;;;;;;21.93;14.00;;;5.00;99.90;;;;;;5048496;28;20423;-35
2022/12/19 06:28:33;;;;;;;19.07;14.60;;;5.00;99.90;;;;;;5043359;28;20750;-40
2022/12/19 06:31:01;;;;;;;20.47;13.83;;;5.00;99.90;;;;;;5050176;28;20493;-38
2022/12/19 06:33:28;;;;;;;20.97;14.87;;;5.20;99.90;;;;;;5050245;28;20420;-38
2022/12/19 06:35:59;;;;;;;18.13;13.70;;;5.00;99.90;;;;;;5050278;28;20483;-36
2022/12/19 06:38:25;;;;;;;18.40;13.83;;;5.20;99.90;;;;;;5050349;28;20499;-40
2022/12/19 06:43:35;;;;;;;19.53;13.80;;;5.20;99.90;;;;;;5045401;28;20448;-37
2022/12/19 06:46:01;;;;;;;18.50;13.73;;;5.20;99.90;;;;;;5050394;28;20525;-39
2022/12/19 06:48:27;;;;;;;21.67;15.13;;;5.20;99.90;;;;;;5044973;28;20239;-39
2022/12/19 06:50:52;;;;;;;22.20;14.90;;;5.10;99.90;;;;;;5049822;28;20196;-39
2022/12/19 06:53:19;;;;;;;20.60;14.80;;;5.10;99.90;;;;;;5049014;28;20942;-39
2022/12/19 06:55:46;;;;;;;20.80;14.70;;;5.20;99.90;;;;;;5049664;28;20724;-40
2022/12/19 06:58:11;;;;;;;23.33;15.80;;;5.20;99.90;;;;;;5047951;28;20614;-37
2022/12/19 07:00:37;;;;;;;23.60;15.67;;;5.20;99.90;;;;;;5049463;28;20519;-34
2022/12/19 07:03:06;;;;;;;22.90;17.10;;;5.20;99.90;;;;;;5049388;28;20432;-41
2022/12/19 07:05:32;;;;;;;20.10;14.60;;;5.40;99.90;;;;;;5049854;28;20201;-37
2022/12/19 07:07:58;;;;;;;21.90;14.60;;;5.10;99.90;;;;;;5042725;28;20791;-37
2022/12/19 07:10:23;;;;;;;23.13;15.00;;;5.10;99.90;;;;;;5049230;28;20499;-38
2022/12/19 07:12:49;;;;;;;16.97;14.30;;;5.20;99.90;;;;;;5048788;28;20188;-38
2022/12/19 07:15:15;;;;;;;22.57;13.70;;;5.20;99.90;;;;;;5042569;28;20244;-37
2022/12/19 07:17:41;;;;;;;22.80;15.23;;;5.30;99.90;;;;;;5043150;28;20178;-35
2022/12/19 07:20:07;;;;;;;21.17;16.43;;;5.50;99.90;;;;;;5048933;28;20193;-40
2022/12/19 07:22:35;;;;;;;19.50;14.53;;;5.40;99.90;;;;;;5048772;28;20404;-39
2022/12/19 07:25:02;;;;;;;20.20;14.97;;;5.40;99.90;;;;;;5049128;28;20421;-39
2022/12/19 07:27:27;;;;;;;21.20;14.00;;;5.40;99.90;;;;;;5049042;28;20412;-37
2022/12/19 07:29:54;;;;;;;19.37;13.70;;;5.30;99.90;;;;;;5049147;28;20503;-40
2022/12/19 07:32:20;;;;;;;20.17;14.53;;;5.40;99.90;;;;;;5049154;28;20280;-39
2022/12/19 07:34:46;;;;;;;17.67;12.80;;;5.20;99.90;;;;;;5048599;28;20456;-38
2022/12/19 07:37:12;;;;;;;19.13;15.03;;;5.60;99.90;;;;;;5049534;28;20432;-37
2022/12/19 07:39:37;;;;;;;19.20;12.97;;;5.40;99.90;;;;;;5048474;28;20495;-38
2022/12/19 07:42:03;;;;;;;18.40;12.30;;;5.60;99.90;;;;;;5049221;28;20177;-40
2022/12/19 07:44:29;;;;;;;23.53;13.87;;;5.60;99.90;;;;;;5048820;28;20668;-36
2022/12/19 07:46:54;;;;;;;19.90;13.80;;;5.70;99.90;;;;;;5049455;28;20186;-40
2022/12/19 07:49:20;;;;;;;18.13;13.60;;;5.60;99.90;;;;;;5048550;28;20257;-39
2022/12/19 07:51:46;;;;;;;18.60;13.20;;;5.60;99.90;;;;;;5047987;28;20786;-37
2022/12/19 07:54:11;;;;;;;19.63;13.93;;;5.60;99.90;;;;;;5048911;28;20703;-39
2022/12/19 07:56:37;;;;;;;22.77;14.90;;;5.70;99.90;;;;;;5048406;28;20205;-37
2022/12/19 07:59:02;;;;;;;23.37;14.27;;;5.80;99.90;;;;;;5048909;28;20185;-40
2022/12/19 08:01:28;;;;;;;22.57;13.83;;;5.70;99.90;;;;;;5048744;28;20205;-41
2022/12/19 08:03:54;;;;;;;17.00;13.13;;;5.70;99.90;;;;;;5049025;28;20178;-38
2022/12/19 08:06:20;;;;;;;19.27;14.60;;;5.90;99.90;;;;;;5048543;28;20182;-40
2022/12/19 08:08:45;;;;;;;18.40;13.10;;;5.60;99.90;;;;;;5047320;28;20205;-38
2022/12/19 08:11:25;;;;;;;18.23;12.57;;;5.90;99.90;;;;;;5048554;28;20496;-36
2022/12/19 08:13:52;;;;;;;21.87;14.40;;;6.10;99.90;;;;;;5045140;28;20198;-36
2022/12/19 08:16:18;;;;;;;23.17;14.93;;;6.10;99.90;;;;;;5037491;28;20857;-38
2022/12/19 08:18:44;;;;;;;20.97;14.07;;;5.90;99.90;;;;;;5048171;28;20409;-39
2022/12/19 08:21:10;;;;;;;20.60;14.63;;;5.90;99.90;;;;;;5048375;28;20931;-36
2022/12/19 08:23:37;;;;;;;18.30;13.57;;;6.10;99.90;;;;;;5047818;28;20170;-40
2022/12/19 08:26:09;;;;;;;19.40;13.50;;;6.10;99.90;;;;;;5045462;28;20577;-39
2022/12/19 08:28:35;;;;;;;19.93;14.40;;;5.90;99.90;;;;;;5028206;28;20421;-39
2022/12/19 08:31:10;;;;;;;18.63;13.93;;;6.20;99.90;;;;;;5039166;28;20543;-37
2022/12/19 08:33:36;;;;;;;20.23;14.23;;;6.10;99.90;;;;;;5028898;28;20417;-38
2022/12/19 08:36:13;;;;;;;17.27;14.10;;;6.10;99.90;;;;;;5026503;28;20574;-38
2022/12/19 08:38:40;;;;;;;19.70;14.20;;;6.20;99.90;;;;;;5036617;28;20942;-37
2022/12/19 08:41:06;;;;;;;22.00;14.90;;;6.20;99.90;;;;;;5047854;28;20431;-38
2022/12/19 08:43:31;;;;;;;18.70;14.50;;;6.00;99.90;;;;;;5048021;28;20907;-42
2022/12/19 08:45:58;;;;;;;20.77;14.80;;;6.20;99.90;;;;;;5047728;28;20416;-35
2022/12/19 08:48:24;;;;;;;20.90;15.10;;;6.30;99.90;;;;;;5047942;28;20178;-37
2022/12/19 08:50:55;;;;;;;21.87;14.47;;;6.00;99.90;;;;;;5048009;28;20529;-37
2022/12/19 08:53:23;;;;;;;21.43;14.60;;;6.20;99.90;;;;;;5047850;28;20439;-37
2022/12/19 08:56:06;;;;;;;19.87;13.47;;;5.90;99.90;;;;;;5048322;28;20463;-40
2022/12/19 08:58:31;;;;;;;19.77;15.07;;;6.20;99.90;;;;;;5047708;28;20412;-40
2022/12/19 09:00:59;;;;;;;20.47;13.37;;;6.10;99.90;;;;;;5048005;28;20412;-39
2022/12/19 09:03:25;;;;;;;20.57;13.77;;;6.00;99.90;;;;;;5047538;28;20181;-37
2022/12/19 09:05:58;;;;;;;23.40;14.10;;;6.10;99.90;;;;;;5048070;28;20440;-38
2022/12/19 09:08:25;;;;;;;20.40;14.90;;;6.20;99.90;;;;;;5045230;28;20416;-34
2022/12/19 09:10:56;;;;;;;19.27;14.03;;;6.30;99.90;;;;;;5048045;28;20470;-36
2022/12/19 09:13:22;;;;;;;16.10;12.73;;;6.30;99.90;;;;;;5047703;28;20796;-38
2022/12/19 09:15:47;;;;;;;18.50;13.30;;;6.20;99.90;;;;;;5047331;28;20456;-40
2022/12/19 09:18:13;;;;;;;19.23;14.33;;;6.30;99.90;;;;;;5048113;28;20189;-38
2022/12/19 09:20:39;;;;;;;20.23;13.70;;;6.20;99.90;;;;;;5047250;28;20189;-36
2022/12/19 09:23:04;;;;;;;18.83;13.50;;;6.20;99.90;;;;;;5046776;28;20219;-37
2022/12/19 09:25:30;;;;;;;19.97;13.33;;;6.30;99.90;;;;;;5047724;28;20182;-38
2022/12/19 09:27:55;;;;;;;18.43;13.37;;;6.30;99.90;;;;;;5047914;28;20204;-39
2022/12/19 09:30:21;;;;;;;19.47;13.20;;;6.40;99.90;;;;;;5047590;28;20572;-40
2022/12/19 09:32:47;;;;;;;18.53;13.10;;;6.50;99.90;;;;;;5045819;28;20280;-39
2022/12/19 09:35:12;;;;;;;17.00;11.90;;;6.60;99.90;;;;;;5047890;28;20209;-40
2022/12/19 09:37:38;;;;;;;18.63;13.40;;;6.60;99.90;;;;;;5047431;28;20635;-40
2022/12/19 09:40:05;;;;;;;18.17;12.80;;;6.40;99.90;;;;;;5027965;28;20250;-42
2022/12/19 09:42:46;;;;;;;18.80;13.20;;;6.40;99.90;;;;;;5027478;28;20425;-38
2022/12/19 09:45:12;;;;;;;16.70;12.50;;;6.50;99.90;;;;;;5028072;28;20843;-36
2022/12/19 09:47:41;;;;;;;18.90;13.30;;;6.50;99.90;;;;;;5027954;28;20413;-38
2022/12/19 09:50:28;;;;;;;19.40;13.30;;;6.60;99.90;;;;;;5027183;28;20178;-39
2022/12/19 09:52:59;;;;;;;18.03;11.90;;;6.60;99.90;;;;;;5027564;28;20417;-40
2022/12/19 09:55:32;;;;;;;16.50;11.93;;;6.40;99.90;;;;;;5025820;28;20461;-36
2022/12/19 09:58:31;;;;;;;14.73;12.10;;;6.70;99.90;;;;;;5028277;28;20433;-38
2022/12/19 10:01:01;;;;;;;17.00;12.60;;;6.80;99.90;;;;;;5030184;28;20449;-39
2022/12/19 10:03:33;;;;;;;14.93;10.63;;;6.70;99.90;;;;;;5030756;28;20408;-38
2022/12/19 10:06:20;;;;;;;13.90;10.10;;;6.90;99.90;;;;;;5031002;28;20452;-40
2022/12/19 10:08:46;;;;;;;14.37;10.83;;;6.80;99.90;;;;;;5029898;28;20579;-40
2022/12/19 10:11:15;;;;;;;12.37;10.50;;;6.90;99.90;;;;;;5030912;28;20418;-35
2022/12/19 10:13:50;;;;;;;14.77;10.60;;;6.80;99.90;;;;;;5030745;28;20428;-37
2022/12/19 10:16:32;;;;;;;16.73;10.97;;;7.00;99.90;;;;;;5039010;28;20516;-36
2022/12/19 10:19:05;;;;;;;18.20;10.53;;;6.90;99.90;;;;;;5050616;28;20432;-37
2022/12/19 10:21:34;;;;;;;14.73;11.10;;;7.00;99.90;;;;;;5050994;28;20433;-35
2022/12/19 10:24:11;;;;;;;16.00;11.13;;;7.00;99.90;;;;;;5050244;28;20412;-38
2022/12/19 10:26:50;;;;;;;12.40;9.50;;;7.10;99.90;;;;;;5050661;28;20421;-36
2022/12/19 10:29:38;;;;;;;14.43;9.77;;;7.20;99.90;;;;;;5050073;28;20430;-38
2022/12/19 10:32:14;;;;;;;13.57;9.93;;;7.20;99.90;;;;;;5050686;28;20456;-35
2022/12/19 10:34:42;;;;;;;16.23;11.43;;;7.10;99.90;;;;;;5049900;28;20415;-39
2022/12/19 10:37:39;;;;;;;12.20;9.27;;;7.20;99.90;;;;;;5050662;28;20424;-39
2022/12/19 10:40:14;;;;;;;13.77;9.90;;;7.30;99.90;;;;;;5029270;28;20889;-39
2022/12/19 10:42:47;;;;;;;12.10;9.30;;;7.30;99.90;;;;;;5030482;28;20420;-35
2022/12/19 10:45:17;;;;;;;12.97;9.83;;;7.30;99.90;;;;;;5029912;28;20421;-41
2022/12/19 10:47:45;;;;;;;12.07;9.90;;;7.40;99.90;;;;;;5030572;28;20465;-41
2022/12/19 10:50:14;;;;;;;14.67;9.60;;;7.40;99.90;;;;;;5030011;28;20495;-36
2022/12/19 10:52:51;;;;;;;11.97;9.27;;;7.40;99.90;;;;;;5029887;28;20425;-39
2022/12/19 10:55:42;;;;;;;14.30;10.40;;;7.40;99.90;;;;;;5030429;28;20546;-37
2022/12/19 10:58:19;;;;;;;14.07;9.20;;;7.50;99.90;;;;;;5027332;28;20900;-41
2022/12/19 11:00:58;;;;;;;11.97;9.40;;;7.50;99.90;;;;;;5030147;28;21022;-40
2022/12/19 11:03:24;;;;;;;11.23;9.40;;;7.50;99.90;;;;;;5029678;28;20421;-39
2022/12/19 11:05:55;;;;;;;13.90;9.70;;;7.40;99.90;;;;;;5028916;28;20475;-40
2022/12/19 11:08:25;;;;;;;11.77;9.40;;;7.50;99.90;;;;;;5028804;28;20528;-38
2022/12/19 11:10:55;;;;;;;12.30;9.13;;;7.60;99.90;;;;;;5029275;28;20417;-40
2022/12/19 11:13:37;;;;;;;12.47;9.33;;;7.60;99.90;;;;;;5029622;28;20432;-36
2022/12/19 11:16:05;;;;;;;13.50;10.53;;;7.50;99.90;;;;;;5036781;28;20482;-40
2022/12/19 11:18:43;;;;;;;11.80;9.50;;;7.50;99.90;;;;;;5048930;28;20428;-40
2022/12/19 11:21:28;;;;;;;12.40;9.47;;;7.50;99.90;;;;;;5050028;28;20424;-38
2022/12/19 11:23:59;;;;;;;12.63;9.23;;;7.50;99.90;;;;;;5049357;28;20903;-36
2022/12/19 11:26:49;;;;;;;11.17;9.30;;;7.50;99.90;;;;;;5049569;28;20486;-42
2022/12/19 11:29:35;;;;;;;12.60;10.03;;;7.60;99.90;;;;;;5049075;28;20485;-38
2022/12/19 11:32:01;;;;;;;14.07;10.33;;;7.50;99.90;;;;;;5049168;28;20820;-37
2022/12/19 11:34:34;;;;;;;16.60;11.17;;;7.60;99.90;;;;;;5049178;28;20515;-38
2022/12/19 11:37:17;;;;;;;12.13;9.77;;;7.50;99.90;;;;;;5049608;28;20424;-38
2022/12/19 11:39:56;;;;;;;13.10;10.53;;;7.60;99.90;;;;;;5048942;28;20981;-40
2022/12/19 11:42:33;;;;;;;15.40;10.50;;;7.80;99.90;;;;;;5049146;28;21104;-37
2022/12/19 11:45:06;;;;;;;14.87;11.10;;;7.50;99.90;;;;;;5049297;28;20420;-37
2022/12/19 11:47:40;;;;;;;12.93;10.53;;;7.40;99.90;;;;;;5049121;28;20818;-39
2022/12/19 11:50:15;;;;;;;14.40;10.80;;;7.50;99.90;;;;;;5048810;28;20513;-37
2022/12/19 11:53:01;;;;;;;14.23;11.40;;;7.50;99.90;;;;;;5048678;28;20522;-41
2022/12/19 11:55:43;;;;;;;13.60;11.60;;;7.70;99.90;;;;;;5049050;28;20462;-38
2022/12/19 11:58:12;;;;;;;16.57;11.60;;;7.50;99.90;;;;;;5048700;28;20423;-41
2022/12/19 12:00:53;;;;;;;15.77;10.50;;;7.50;99.90;;;;;;5048640;28;20787;-39
2022/12/19 12:03:37;;;;;;;14.50;9.97;;;7.50;99.90;;;;;;5049010;28;20423;-39
2022/12/19 12:06:15;;;;;;;14.80;10.93;;;7.50;99.90;;;;;;5048526;28;20525;-39
2022/12/19 12:09:08;;;;;;;15.33;11.17;;;7.50;99.90;;;;;;5047540;28;20420;-39
2022/12/19 12:11:52;;;;;;;14.27;10.50;;;7.60;99.90;;;;;;5048515;28;20416;-37
2022/12/19 12:14:50;;;;;;;14.50;10.57;;;7.50;99.90;;;;;;5048700;28;20423;-39
2022/12/19 12:17:36;;;;;;;17.13;11.10;;;7.50;99.90;;;;;;5027517;28;20437;-40
2022/12/19 12:20:29;;;;;;;15.67;9.90;;;7.50;99.90;;;;;;5028490;28;20405;-36
2022/12/19 12:23:16;;;;;;;13.90;10.33;;;7.60;99.90;;;;;;5027950;28;20440;-40
2022/12/19 12:26:12;;;;;;;14.47;10.40;;;7.70;99.90;;;;;;5028973;28;20417;-42
2022/12/19 12:28:47;;;;;;;15.47;10.80;;;7.70;99.90;;;;;;5028490;28;20405;-36
2022/12/19 12:31:36;;;;;;;13.87;11.20;;;7.50;99.90;;;;;;5028655;28;20413;-39
2022/12/19 12:34:29;;;;;;;17.60;11.40;;;7.60;99.90;;;;;;5026664;28;20413;-37
2022/12/19 12:37:18;;;;;;;14.40;10.60;;;7.50;99.90;;;;;;5028472;28;20425;-41
2022/12/19 12:40:11;;;;;;;14.37;10.37;;;7.60;99.90;;;;;;5044899;28;20465;-41
2022/12/19 12:42:59;;;;;;;11.20;9.60;;;7.70;99.90;;;;;;5048294;28;20407;-39
2022/12/19 12:45:37;;;;;;;16.63;10.63;;;7.70;99.90;;;;;;5048185;28;20426;-38
2022/12/19 12:48:20;;;;;;;13.53;10.27;;;7.60;99.90;;;;;;5048064;28;20832;-39
2022/12/19 12:50:47;;;;;;;14.60;11.20;;;7.50;99.90;;;;;;5047641;28;20825;-40
2022/12/19 12:53:16;;;;;;;13.33;10.10;;;7.60;99.90;;;;;;5046412;28;20470;-40
2022/12/19 12:55:43;;;;;;;13.50;9.43;;;7.60;99.90;;;;;;5047593;28;20452;-37
2022/12/19 12:58:45;;;;;;;12.80;9.40;;;7.70;99.90;;;;;;5048129;28;20412;-37
2022/12/19 13:01:27;;;;;;;11.60;9.63;;;7.60;99.90;;;;;;5047843;28;20406;-37
2022/12/19 13:04:11;;;;;;;14.03;10.00;;;7.90;99.90;;;;;;5047739;28;20423;-42
2022/12/19 13:07:15;;;;;;;11.57;8.60;;;8.00;99.90;;;;;;5047901;28;20416;-41